Time;durP1;ratioP1;P1;durP2;ratioP2;P2;SDS_P1;SDS_P2;PMS_P1;PMS_P2;Temp;Humidity;BMP_temperature;BMP_pressure;BME280_temperature;BME280_humidity;BME280_pressure;Samples;Min_cycle;Max_cycle;Signal;HPM_P1;HPM_P2
2023/03/09 00:01:19;;;;;;;10.68;7.70;;;;;;;;;;5078846;28;20047;-89
2023/03/09 00:03:47;;;;;;;11.55;9.70;;;;;;;;;;5078838;28;20044;-88
2023/03/09 00:06:14;;;;;;;14.60;9.80;;;;;;;;;;5096540;28;20411;-89
2023/03/09 00:08:42;;;;;;;13.57;10.00;;;;;;;;;;5078688;28;20051;-88
2023/03/09 00:11:09;;;;;;;15.45;10.45;;;;;;;;;;5078907;28;20043;-89
2023/03/09 00:13:36;;;;;;;12.75;9.70;;;;;;;;;;5096457;28;20048;-88
2023/03/09 00:16:16;;;;;;;15.20;9.90;;;;;;;;;;5078527;28;20059;-88
2023/03/09 00:18:44;;;;;;;12.45;9.18;;;;;;;;;;5078659;28;20083;-88
2023/03/09 00:21:14;;;;;;;15.10;10.02;;;;;;;;;;5078722;28;20075;-89
2023/03/09 00:23:42;;;;;;;13.10;9.98;;;;;;;;;;5078698;28;20098;-89
2023/03/09 00:26:09;;;;;;;19.33;11.57;;;;;;;;;;5096121;28;20084;-88
2023/03/09 00:28:37;;;;;;;18.02;10.23;;;;;;;;;;5096170;28;20054;-88
2023/03/09 00:31:05;;;;;;;17.23;11.05;;;;;;;;;;5096205;28;20063;-89
2023/03/09 00:33:32;;;;;;;13.77;10.10;;;;;;;;;;5096007;28;20517;-89
2023/03/09 00:36:00;;;;;;;21.73;10.32;;;;;;;;;;5095912;28;20407;-89
2023/03/09 00:38:27;;;;;;;12.32;9.13;;;;;;;;;;5078250;28;20051;-88
2023/03/09 00:40:54;;;;;;;13.50;9.65;;;;;;;;;;5095753;28;20558;-89
2023/03/09 00:43:21;;;;;;;12.93;9.75;;;;;;;;;;5096116;28;20415;-89
2023/03/09 00:45:48;;;;;;;15.82;9.75;;;;;;;;;;5078080;28;20050;-89
2023/03/09 00:48:16;;;;;;;13.48;9.57;;;;;;;;;;5095885;28;20043;-89
2023/03/09 00:50:43;;;;;;;19.23;11.23;;;;;;;;;;5077985;28;20048;-89
2023/03/09 00:53:10;;;;;;;15.88;10.20;;;;;;;;;;5077969;28;20058;-88
2023/03/09 00:55:38;;;;;;;13.07;9.13;;;;;;;;;;5077939;28;20048;-89
2023/03/09 00:58:07;;;;;;;13.10;9.23;;;;;;;;;;5078147;28;20048;-88
2023/03/09 01:00:34;;;;;;;22.20;10.50;;;;;;;;;;5077916;28;20050;-89
2023/03/09 01:03:01;;;;;;;15.77;10.77;;;;;;;;;;5077679;28;20059;-89
2023/03/09 01:05:29;;;;;;;16.20;9.65;;;;;;;;;;5095481;28;20118;-88
2023/03/09 01:07:56;;;;;;;14.85;9.88;;;;;;;;;;5095437;28;20411;-89
2023/03/09 01:10:23;;;;;;;12.02;9.27;;;;;;;;;;5077635;28;20087;-88
2023/03/09 01:12:50;;;;;;;15.50;10.40;;;;;;;;;;5095242;28;20052;-88
2023/03/09 01:15:18;;;;;;;20.77;11.23;;;;;;;;;;5077590;28;20048;-88
2023/03/09 01:17:47;;;;;;;17.73;9.10;;;;;;;;;;5095163;28;20135;-88
2023/03/09 01:20:15;;;;;;;17.35;10.55;;;;;;;;;;5077438;28;20101;-89
2023/03/09 01:22:42;;;;;;;13.25;10.18;;;;;;;;;;5077440;28;20134;-88
2023/03/09 01:25:09;;;;;;;15.80;9.52;;;;;;;;;;5077238;28;20067;-89
2023/03/09 01:27:37;;;;;;;15.07;10.48;;;;;;;;;;5077308;28;20067;-88
2023/03/09 01:30:04;;;;;;;17.77;12.60;;;;;;;;;;5077187;28;20403;-89
2023/03/09 01:32:31;;;;;;;20.15;12.48;;;;;;;;;;5094425;28;20058;-89
2023/03/09 01:34:59;;;;;;;19.27;12.52;;;;;;;;;;5076593;28;20105;-89
2023/03/09 01:37:26;;;;;;;16.40;11.68;;;;;;;;;;5076987;28;20059;-89
2023/03/09 01:39:53;;;;;;;18.80;12.43;;;;;;;;;;5076937;28;20040;-88
2023/03/09 01:42:20;;;;;;;16.42;11.38;;;;;;;;;;5077093;28;20044;-89
2023/03/09 01:45:07;;;;;;;24.75;12.30;;;;;;;;;;5076933;28;20107;-89
2023/03/09 01:47:34;;;;;;;30.35;12.07;;;;;;;;;;5076718;28;20095;-88
2023/03/09 01:50:02;;;;;;;25.67;12.45;;;;;;;;;;5076735;28;20048;-88
2023/03/09 01:52:32;;;;;;;25.02;11.50;;;;;;;;;;5076810;28;20475;-89
2023/03/09 01:55:08;;;;;;;11.15;8.55;;;;;;;;;;5094405;28;20052;-88
2023/03/09 01:57:37;;;;;;;10.13;7.85;;;;;;;;;;5094416;28;20047;-88
2023/03/09 02:00:08;;;;;;;12.50;8.70;;;;;;;;;;5076788;28;20048;-88
2023/03/09 02:02:38;;;;;;;14.10;9.35;;;;;;;;;;5094360;28;20050;-88
2023/03/09 02:05:10;;;;;;;16.05;9.95;;;;;;;;;;5076380;28;20461;-88
2023/03/09 02:07:38;;;;;;;25.10;10.10;;;;;;;;;;5076707;28;20071;-89
2023/03/09 02:10:09;;;;;;;15.77;9.20;;;;;;;;;;5077025;28;20479;-88
2023/03/09 02:12:40;;;;;;;19.83;10.02;;;;;;;;;;5077398;28;20477;-88
2023/03/09 02:15:07;;;;;;;21.27;9.93;;;;;;;;;;5076078;28;20048;-88
2023/03/09 02:17:35;;;;;;;7.40;6.03;;;;;;;;;;5076291;28;20048;-88
2023/03/09 02:20:24;;;;;;;11.70;7.30;;;;;;;;;;5076343;28;20069;-88
2023/03/09 02:22:52;;;;;;;13.02;7.03;;;;;;;;;;5093887;28;20419;-88
2023/03/09 02:25:27;;;;;;;11.35;7.05;;;;;;;;;;5076203;28;20079;-88
2023/03/09 02:27:54;;;;;;;5.70;5.18;;;;;;;;;;5076410;28;20054;-88
2023/03/09 02:30:23;;;;;;;7.07;6.35;;;;;;;;;;5075951;28;20079;-88
2023/03/09 02:32:51;;;;;;;9.68;6.97;;;;;;;;;;5075088;28;20314;-87
2023/03/09 02:35:18;;;;;;;6.63;5.75;;;;;;;;;;5075985;28;20144;-88
2023/03/09 02:37:45;;;;;;;7.38;5.65;;;;;;;;;;5075983;28;20051;-88
2023/03/09 02:40:13;;;;;;;5.88;5.28;;;;;;;;;;5093988;28;20047;-88
2023/03/09 02:42:40;;;;;;;5.55;5.05;;;;;;;;;;5076204;28;20457;-88
2023/03/09 02:45:08;;;;;;;6.32;5.22;;;;;;;;;;5075780;28;20047;-88
2023/03/09 02:47:36;;;;;;;6.22;4.82;;;;;;;;;;5075075;28;20055;-88
2023/03/09 02:50:03;;;;;;;5.93;5.32;;;;;;;;;;5093545;28;20055;-88
2023/03/09 02:52:30;;;;;;;6.07;5.45;;;;;;;;;;5093729;28;20056;-88
2023/03/09 02:54:58;;;;;;;5.47;4.97;;;;;;;;;;5075919;28;20048;-88
2023/03/09 02:57:25;;;;;;;4.90;4.47;;;;;;;;;;5093675;28;20048;-88
2023/03/09 02:59:52;;;;;;;4.55;4.15;;;;;;;;;;5075934;28;20056;-88
2023/03/09 03:02:19;;;;;;;6.07;4.57;;;;;;;;;;5075957;28;20044;-89
2023/03/09 03:04:47;;;;;;;4.43;4.03;;;;;;;;;;5075721;28;20066;-88
2023/03/09 03:07:14;;;;;;;5.00;4.50;;;;;;;;;;5075681;28;20479;-88
2023/03/09 03:09:41;;;;;;;7.50;5.32;;;;;;;;;;5093353;28;20040;-89
2023/03/09 03:12:08;;;;;;;7.40;4.93;;;;;;;;;;5093291;28;20044;-87
2023/03/09 03:14:36;;;;;;;4.60;4.20;;;;;;;;;;5075679;28;20048;-88
2023/03/09 03:17:03;;;;;;;4.68;4.28;;;;;;;;;;5075238;28;20051;-89
2023/03/09 03:19:32;;;;;;;5.45;4.65;;;;;;;;;;5075478;28;20075;-89
2023/03/09 03:21:59;;;;;;;5.65;4.82;;;;;;;;;;5075681;28;20410;-88
2023/03/09 03:24:27;;;;;;;7.40;5.20;;;;;;;;;;5075430;28;20402;-88
2023/03/09 03:26:54;;;;;;;6.75;4.90;;;;;;;;;;5075250;28;20547;-89
2023/03/09 03:29:21;;;;;;;5.88;5.03;;;;;;;;;;5093266;28;20234;-89
2023/03/09 03:31:50;;;;;;;5.45;4.93;;;;;;;;;;5075654;28;20048;-88
2023/03/09 03:34:17;;;;;;;7.60;4.72;;;;;;;;;;5093211;28;20443;-88
2023/03/09 03:36:45;;;;;;;5.15;4.65;;;;;;;;;;5093209;28;20051;-88
2023/03/09 03:39:12;;;;;;;4.78;4.38;;;;;;;;;;5075607;28;20052;-88
2023/03/09 03:41:39;;;;;;;4.60;3.70;;;;;;;;;;5075271;28;20048;-87
2023/03/09 03:44:07;;;;;;;4.47;3.92;;;;;;;;;;5093306;28;20396;-88
2023/03/09 03:46:34;;;;;;;6.30;4.53;;;;;;;;;;5092990;28;20048;-88
2023/03/09 03:49:01;;;;;;;5.55;4.53;;;;;;;;;;5093138;28;20052;-88
2023/03/09 03:51:29;;;;;;;4.93;4.47;;;;;;;;;;5093117;28;20091;-89
2023/03/09 03:53:56;;;;;;;7.07;5.07;;;;;;;;;;5093075;28;20048;-89
2023/03/09 03:56:23;;;;;;;4.13;3.53;;;;;;;;;;5075282;28;20130;-89
2023/03/09 03:58:50;;;;;;;4.25;3.80;;;;;;;;;;5078060;28;20078;-89
2023/03/09 04:01:18;;;;;;;3.53;3.22;;;;;;;;;;5079154;28;20149;-89
2023/03/09 04:03:45;;;;;;;3.28;2.97;;;;;;;;;;5078974;28;20052;-88
2023/03/09 04:06:12;;;;;;;4.47;3.53;;;;;;;;;;5078870;28;20488;-88
2023/03/09 04:08:39;;;;;;;4.32;3.70;;;;;;;;;;5078790;28;20048;-89
2023/03/09 04:11:08;;;;;;;8.48;4.10;;;;;;;;;;5078924;28;20123;-89
2023/03/09 04:13:35;;;;;;;5.32;2.83;;;;;;;;;;5078986;28;20514;-89
2023/03/09 04:16:03;;;;;;;4.30;2.63;;;;;;;;;;5078549;28;20050;-89
2023/03/09 04:18:30;;;;;;;3.22;2.95;;;;;;;;;;5078787;28;20121;-89
2023/03/09 04:20:57;;;;;;;5.32;3.97;;;;;;;;;;5078915;28;20075;-88
2023/03/09 04:23:24;;;;;;;4.40;4.00;;;;;;;;;;5096672;28;20044;-88
2023/03/09 04:25:59;;;;;;;4.47;3.67;;;;;;;;;;5078583;28;20495;-89
2023/03/09 04:28:27;;;;;;;10.48;4.25;;;;;;;;;;5078866;28;20052;-88
2023/03/09 04:30:54;;;;;;;4.18;3.42;;;;;;;;;;5096333;28;20080;-88
2023/03/09 04:33:22;;;;;;;8.68;3.83;;;;;;;;;;5078427;28;20412;-88
2023/03/09 04:35:49;;;;;;;5.70;3.92;;;;;;;;;;5078426;28;20055;-88
2023/03/09 04:38:16;;;;;;;6.13;3.67;;;;;;;;;;5078315;28;20047;-88
2023/03/09 04:40:43;;;;;;;3.95;3.20;;;;;;;;;;5096440;28;20055;-88
2023/03/09 04:43:11;;;;;;;4.10;3.70;;;;;;;;;;5078391;28;20052;-88
2023/03/09 04:45:38;;;;;;;3.65;3.33;;;;;;;;;;5078580;28;20048;-88
2023/03/09 04:48:05;;;;;;;6.65;4.55;;;;;;;;;;5079222;28;20434;-89
2023/03/09 04:50:32;;;;;;;7.90;3.97;;;;;;;;;;5079394;28;20044;-89
2023/03/09 04:52:59;;;;;;;6.40;3.85;;;;;;;;;;5080520;28;20127;-88
2023/03/09 04:55:27;;;;;;;4.70;4.20;;;;;;;;;;5078203;28;20491;-88
2023/03/09 04:57:54;;;;;;;4.10;3.70;;;;;;;;;;5095841;28;20044;-89
2023/03/09 05:00:23;;;;;;;7.80;3.55;;;;;;;;;;5077763;28;20419;-89
2023/03/09 05:02:50;;;;;;;4.85;2.72;;;;;;;;;;5077765;28;20518;-89
2023/03/09 05:05:18;;;;;;;5.32;2.92;;;;;;;;;;5095449;28;20080;-89
2023/03/09 05:07:45;;;;;;;13.70;5.78;;;;;;;;;;5077736;28;20127;-89
2023/03/09 05:10:12;;;;;;;7.18;4.25;;;;;;;;;;5094671;28;20048;-89
2023/03/09 05:12:39;;;;;;;4.95;4.05;;;;;;;;;;5077892;28;20054;-88
2023/03/09 05:15:07;;;;;;;10.52;4.63;;;;;;;;;;5095297;28;20051;-89
2023/03/09 05:17:34;;;;;;;8.48;4.38;;;;;;;;;;5095200;28;20055;-89
2023/03/09 05:20:07;;;;;;;6.20;3.50;;;;;;;;;;5095169;28;20087;-89
2023/03/09 05:22:34;;;;;;;8.70;3.70;;;;;;;;;;5095228;28;20487;-89
2023/03/09 05:25:02;;;;;;;6.30;3.92;;;;;;;;;;5077535;28;20051;-89
2023/03/09 05:27:30;;;;;;;7.40;3.72;;;;;;;;;;5077665;28;20099;-89
2023/03/09 05:29:58;;;;;;;3.58;3.38;;;;;;;;;;5095275;28;20388;-89
2023/03/09 05:32:25;;;;;;;5.15;4.25;;;;;;;;;;5077299;28;20056;-88
2023/03/09 05:34:53;;;;;;;6.80;6.10;;;;;;;;;;5077286;28;20098;-89
2023/03/09 05:37:20;;;;;;;10.20;7.90;;;;;;;;;;5077217;28;20127;-89
2023/03/09 05:39:47;;;;;;;7.45;6.28;;;;;;;;;;5077108;28;20415;-89
2023/03/09 05:42:14;;;;;;;9.30;7.28;;;;;;;;;;5077123;28;20494;-88
2023/03/09 05:44:43;;;;;;;7.97;6.97;;;;;;;;;;5094645;28;20044;-89
2023/03/09 05:47:10;;;;;;;9.60;5.90;;;;;;;;;;5077066;28;20075;-89
2023/03/09 05:49:37;;;;;;;10.90;7.53;;;;;;;;;;5094748;28;20116;-88
2023/03/09 05:52:04;;;;;;;10.98;8.90;;;;;;;;;;5077023;28;20044;-89
2023/03/09 05:54:32;;;;;;;11.23;8.25;;;;;;;;;;5094464;28;20472;-89
2023/03/09 05:56:59;;;;;;;9.48;7.70;;;;;;;;;;5076569;28;20039;-89
2023/03/09 05:59:26;;;;;;;7.90;6.50;;;;;;;;;;5093324;28;20109;-89
2023/03/09 06:01:54;;;;;;;12.95;7.95;;;;;;;;;;5076716;28;20048;-89
2023/03/09 06:04:21;;;;;;;9.07;7.22;;;;;;;;;;5094490;28;20045;-88
2023/03/09 06:06:48;;;;;;;11.02;7.13;;;;;;;;;;5076976;28;20413;-89
2023/03/09 06:09:15;;;;;;;45.35;18.08;;;;;;;;;;5076645;28;20075;-89
2023/03/09 06:11:43;;;;;;;57.92;23.77;;;;;;;;;;5077132;28;20056;-89
2023/03/09 06:14:10;;;;;;;45.40;19.05;;;;;;;;;;5076260;28;20040;-88
2023/03/09 06:16:37;;;;;;;34.25;16.17;;;;;;;;;;5094437;28;20411;-89
2023/03/09 06:19:05;;;;;;;44.75;19.98;;;;;;;;;;5076534;28;20048;-89
2023/03/09 06:21:32;;;;;;;39.80;17.02;;;;;;;;;;5076540;28;20052;-89
2023/03/09 06:23:59;;;;;;;35.10;14.50;;;;;;;;;;5094272;28;20051;-88
2023/03/09 06:26:28;;;;;;;37.25;16.42;;;;;;;;;;5076510;28;20052;-89
2023/03/09 06:28:56;;;;;;;30.02;15.80;;;;;;;;;;5076356;28;20060;-89
2023/03/09 06:31:23;;;;;;;167.57;84.45;;;;;;;;;;5076435;28;20134;-89
2023/03/09 06:33:50;;;;;;;19.48;11.65;;;;;;;;;;5093317;28;20054;-89
2023/03/09 06:36:18;;;;;;;31.25;14.73;;;;;;;;;;5076068;28;20048;-89
2023/03/09 06:38:45;;;;;;;128.10;59.13;;;;;;;;;;5075970;28;20050;-89
2023/03/09 06:41:14;;;;;;;103.13;47.80;;;;;;;;;;5093787;28;20056;-89
2023/03/09 06:43:44;;;;;;;102.78;48.80;;;;;;;;;;5076217;28;20536;-89
2023/03/09 06:46:12;;;;;;;125.22;55.10;;;;;;;;;;5076225;28;20091;-89
2023/03/09 06:48:39;;;;;;;148.95;68.95;;;;;;;;;;5075867;28;20105;-89
2023/03/09 06:51:06;;;;;;;95.43;40.08;;;;;;;;;;5076202;28;20051;-89
2023/03/09 06:53:33;;;;;;;110.20;49.92;;;;;;;;;;5076102;28;20521;-88
2023/03/09 06:56:01;;;;;;;57.55;25.73;;;;;;;;;;5075866;28;20048;-87
2023/03/09 06:58:28;;;;;;;56.33;26.00;;;;;;;;;;5076163;28;20048;-89
2023/03/09 07:00:55;;;;;;;62.97;30.80;;;;;;;;;;5075748;28;20054;-87
2023/03/09 07:03:23;;;;;;;49.10;25.85;;;;;;;;;;5076024;28;20109;-89
2023/03/09 07:05:53;;;;;;;99.25;56.80;;;;;;;;;;5076211;28;20048;-89
2023/03/09 07:08:20;;;;;;;69.10;36.40;;;;;;;;;;5093524;28;20360;-89
2023/03/09 07:10:48;;;;;;;101.10;58.55;;;;;;;;;;5093569;28;20048;-89
2023/03/09 07:13:16;;;;;;;74.65;41.47;;;;;;;;;;5093522;28;20048;-89
2023/03/09 07:15:43;;;;;;;61.97;36.70;;;;;;;;;;5075463;28;20487;-89
2023/03/09 07:18:11;;;;;;;62.03;32.03;;;;;;;;;;5093516;28;20059;-89
2023/03/09 07:20:38;;;;;;;69.93;36.67;;;;;;;;;;5075559;28;20056;-88
2023/03/09 07:23:06;;;;;;;131.15;64.00;;;;;;;;;;5093541;28;20086;-88
2023/03/09 07:25:35;;;;;;;188.23;90.90;;;;;;;;;;5075358;28;20070;-88
2023/03/09 07:28:07;;;;;;;130.63;68.43;;;;;;;;;;5075531;28;20052;-88
2023/03/09 07:30:36;;;;;;;86.53;48.00;;;;;;;;;;5093265;28;20063;-89
2023/03/09 07:33:04;;;;;;;75.28;39.80;;;;;;;;;;5076825;28;20056;-88
2023/03/09 07:35:31;;;;;;;65.25;35.83;;;;;;;;;;5079258;28;20075;-88
2023/03/09 07:37:58;;;;;;;54.35;30.13;;;;;;;;;;5097108;28;20130;-89
2023/03/09 07:40:25;;;;;;;41.08;24.67;;;;;;;;;;5079432;28;20475;-89
2023/03/09 07:42:53;;;;;;;56.30;32.67;;;;;;;;;;5078729;28;20048;-88
2023/03/09 07:45:21;;;;;;;95.43;54.90;;;;;;;;;;5078960;28;20048;-88
2023/03/09 07:47:49;;;;;;;91.60;50.78;;;;;;;;;;5096872;28;20059;-88
2023/03/09 07:50:18;;;;;;;49.55;32.05;;;;;;;;;;5079123;28;20139;-88
2023/03/09 07:52:45;;;;;;;28.25;19.30;;;;;;;;;;5078927;28;20048;-86
2023/03/09 07:55:12;;;;;;;29.40;17.45;;;;;;;;;;5078947;28;20503;-88
2023/03/09 07:57:40;;;;;;;28.83;20.10;;;;;;;;;;5079358;28;20044;-87
2023/03/09 08:00:11;;;;;;;24.45;17.83;;;;;;;;;;5096873;28;20044;-89
2023/03/09 08:02:42;;;;;;;31.67;22.02;;;;;;;;;;5079171;28;20048;-89
2023/03/09 08:05:10;;;;;;;21.10;15.68;;;;;;;;;;5079009;28;20101;-89
2023/03/09 08:07:39;;;;;;;20.33;14.60;;;;;;;;;;5096913;28;20051;-88
2023/03/09 08:10:06;;;;;;;19.08;14.65;;;;;;;;;;5078964;28;20055;-88
2023/03/09 08:12:33;;;;;;;16.15;13.52;;;;;;;;;;5078858;28;20048;-88
2023/03/09 08:15:01;;;;;;;17.67;12.75;;;;;;;;;;5079022;28;20047;-85
2023/03/09 08:17:29;;;;;;;17.50;13.27;;;;;;;;;;5078865;28;20551;-86
2023/03/09 08:19:56;;;;;;;18.00;14.25;;;;;;;;;;5078658;28;20044;-89
2023/03/09 08:22:23;;;;;;;21.95;16.40;;;;;;;;;;5078778;28;20045;-88
2023/03/09 08:24:50;;;;;;;20.73;14.02;;;;;;;;;;5078523;28;20105;-88
2023/03/09 08:27:17;;;;;;;15.43;12.10;;;;;;;;;;5096239;28;20044;-89
2023/03/09 08:29:45;;;;;;;10.50;8.52;;;;;;;;;;5078506;28;20048;-88
2023/03/09 08:32:12;;;;;;;9.20;7.68;;;;;;;;;;5078220;28;20476;-89
2023/03/09 08:34:39;;;;;;;8.95;6.45;;;;;;;;;;5094767;28;20048;-88
2023/03/09 08:37:06;;;;;;;2.40;2.30;;;;;;;;;;5096137;28;20127;-88
2023/03/09 08:39:33;;;;;;;1.33;1.10;;;;;;;;;;5078399;28;20491;-88
2023/03/09 08:42:01;;;;;;;1.45;1.35;;;;;;;;;;5096051;28;20055;-88
2023/03/09 08:44:28;;;;;;;1.08;1.05;;;;;;;;;;5077016;28;20044;-88
2023/03/09 08:46:55;;;;;;;1.33;1.23;;;;;;;;;;5095996;28;20067;-88
2023/03/09 08:49:22;;;;;;;1.35;1.00;;;;;;;;;;5078309;28;20091;-88
2023/03/09 08:51:50;;;;;;;2.20;0.80;;;;;;;;;;5095951;28;20054;-88
2023/03/09 08:54:17;;;;;;;0.60;0.60;;;;;;;;;;5078483;28;20083;-87
2023/03/09 08:56:45;;;;;;;0.85;0.85;;;;;;;;;;5095828;28;20074;-87
2023/03/09 08:59:12;;;;;;;1.20;0.70;;;;;;;;;;5078423;28;20072;-88
2023/03/09 09:01:39;;;;;;;1.80;0.50;;;;;;;;;;5077882;28;20067;-88
2023/03/09 09:04:06;;;;;;;3.47;0.30;;;;;;;;;;5077805;28;20044;-87
2023/03/09 09:06:34;;;;;;;0.70;0.30;;;;;;;;;;5077951;28;20047;-87
2023/03/09 09:09:01;;;;;;;0.30;0.20;;;;;;;;;;5095422;28;20218;-87
2023/03/09 09:11:28;;;;;;;0.85;0.20;;;;;;;;;;5077742;28;20048;-87
2023/03/09 09:13:56;;;;;;;0.20;0.20;;;;;;;;;;5077586;28;20407;-87
2023/03/09 09:16:23;;;;;;;0.10;0.10;;;;;;;;;;5077342;28;20048;-86
2023/03/09 09:18:51;;;;;;;0.20;0.20;;;;;;;;;;5077443;28;20044;-87
2023/03/09 09:21:18;;;;;;;0.30;0.30;;;;;;;;;;5076918;28;20086;-87
2023/03/09 09:23:46;;;;;;;1.45;0.40;;;;;;;;;;5077201;28;20048;-86
2023/03/09 09:26:16;;;;;;;0.75;0.63;;;;;;;;;;5077274;28;20123;-86
2023/03/09 09:28:45;;;;;;;1.42;0.35;;;;;;;;;;5077049;28;20434;-87
2023/03/09 09:31:15;;;;;;;0.38;0.20;;;;;;;;;;5077268;28;20082;-86
2023/03/09 09:33:42;;;;;;;0.80;0.80;;;;;;;;;;5076576;28;20139;-86
2023/03/09 09:36:15;;;;;;;0.20;0.20;;;;;;;;;;5076783;28;20129;-86
2023/03/09 09:38:42;;;;;;;0.73;0.23;;;;;;;;;;5076794;28;20117;-85
2023/03/09 09:41:34;;;;;;;0.22;0.10;;;;;;;;;;5076986;28;20443;-86
2023/03/09 09:44:04;;;;;;;0.32;0.17;;;;;;;;;;5094574;28;20056;-86
2023/03/09 09:46:31;;;;;;;1.42;0.28;;;;;;;;;;5076522;28;20062;-86
2023/03/09 09:49:00;;;;;;;0.25;0.25;;;;;;;;;;5094265;28;20059;-86
2023/03/09 09:51:47;;;;;;;6.50;0.40;;;;;;;;;;5094484;28;20044;-86
2023/03/09 09:54:15;;;;;;;1.38;0.30;;;;;;;;;;5077023;28;20075;-86
2023/03/09 09:56:48;;;;;;;1.50;0.30;;;;;;;;;;5093972;28;20065;-86
2023/03/09 09:59:41;;;;;;;2.55;0.38;;;;;;;;;;5076339;28;20048;-84
2023/03/09 10:02:09;;;;;;;0.75;0.15;;;;;;;;;;5090920;28;20063;-86
2023/03/09 10:04:37;;;;;;;2.65;0.52;;;;;;;;;;5094088;28;20127;-86
2023/03/09 10:07:10;;;;;;;0.80;0.30;;;;;;;;;;5094293;28;20055;-86
2023/03/09 10:09:39;;;;;;;1.38;0.60;;;;;;;;;;5076192;28;20052;-85
2023/03/09 10:12:18;;;;;;;0.77;0.30;;;;;;;;;;5094021;28;20048;-85
2023/03/09 10:14:51;;;;;;;0.65;0.20;;;;;;;;;;5093933;28;20130;-85
2023/03/09 10:17:24;;;;;;;0.45;0.28;;;;;;;;;;5075909;28;20097;-86
2023/03/09 10:19:52;;;;;;;;;;;;;;;;;;5076095;28;20415;-83
2023/03/09 10:22:24;;;;;;;0.25;0.25;;;;;;;;;;5093993;28;19920;-85
2023/03/09 10:24:52;;;;;;;1.45;0.30;;;;;;;;;;5093528;28;20056;-85
2023/03/09 10:27:32;;;;;;;0.82;0.50;;;;;;;;;;5075888;28;20399;-86
2023/03/09 10:30:02;;;;;;;0.30;0.30;;;;;;;;;;5075799;28;20479;-86
2023/03/09 10:32:50;;;;;;;0.40;0.40;;;;;;;;;;5076883;28;20052;-85
2023/03/09 10:35:17;;;;;;;0.40;0.40;;;;;;;;;;5092440;28;20060;-86
2023/03/09 10:37:45;;;;;;;0.50;0.50;;;;;;;;;;5075533;28;20547;-85
2023/03/09 10:40:20;;;;;;;1.70;0.60;;;;;;;;;;5093561;28;20052;-86
2023/03/09 10:42:48;;;;;;;1.33;0.50;;;;;;;;;;5074815;28;20048;-86
2023/03/09 10:45:28;;;;;;;0.38;0.20;;;;;;;;;;5093753;28;20047;-85
2023/03/09 10:47:57;;;;;;;0.20;0.20;;;;;;;;;;5075595;28;20135;-85
2023/03/09 10:50:25;;;;;;;0.43;0.20;;;;;;;;;;5075548;28;20058;-85
2023/03/09 10:52:54;;;;;;;0.10;0.10;;;;;;;;;;5093458;28;20044;-85
2023/03/09 10:55:29;;;;;;;0.35;0.17;;;;;;;;;;5075568;28;20411;-85
2023/03/09 10:58:02;;;;;;;0.25;0.20;;;;;;;;;;5093172;28;20052;-82
2023/03/09 11:00:30;;;;;;;0.40;0.15;;;;;;;;;;5093034;28;20495;-83
2023/03/09 11:03:00;;;;;;;0.10;0.10;;;;;;;;;;5075352;28;20086;-84
2023/03/09 11:05:29;;;;;;;0.80;0.40;;;;;;;;;;5075032;28;20110;-83
2023/03/09 11:07:57;;;;;;;1.35;0.20;;;;;;;;;;5076584;28;20047;-84
2023/03/09 11:10:27;;;;;;;0.40;0.32;;;;;;;;;;5079453;28;20052;-84
2023/03/09 11:12:54;;;;;;;0.30;0.30;;;;;;;;;;5079501;28;20051;-83
2023/03/09 11:15:25;;;;;;;1.45;0.13;;;;;;;;;;5079468;28;20052;-84
2023/03/09 11:17:52;;;;;;;0.52;0.10;;;;;;;;;;5079555;28;20048;-84
2023/03/09 11:20:23;;;;;;;0.35;0.30;;;;;;;;;;5078903;28;20048;-84
2023/03/09 11:22:59;;;;;;;0.93;0.30;;;;;;;;;;5079036;28;20457;-84
2023/03/09 11:25:29;;;;;;;0.30;0.30;;;;;;;;;;5078789;28;20052;-83
2023/03/09 11:28:02;;;;;;;0.88;0.30;;;;;;;;;;5078732;28;20040;-83
2023/03/09 11:30:30;;;;;;;0.20;0.20;;;;;;;;;;5096825;28;20048;-83
2023/03/09 11:32:57;;;;;;;1.98;0.20;;;;;;;;;;5078325;28;20113;-83
2023/03/09 11:35:25;;;;;;;0.10;0.10;;;;;;;;;;5096616;28;20048;-83
2023/03/09 11:37:54;;;;;;;1.52;0.32;;;;;;;;;;5095871;28;20056;-84
2023/03/09 11:40:22;;;;;;;0.45;0.35;;;;;;;;;;5096561;28;20051;-83
2023/03/09 11:42:52;;;;;;;0.55;0.30;;;;;;;;;;5078719;28;20075;-83
2023/03/09 11:45:21;;;;;;;1.48;0.20;;;;;;;;;;5078433;28;20083;-83
2023/03/09 11:47:52;;;;;;;1.02;0.20;;;;;;;;;;5078563;28;20134;-82
2023/03/09 11:50:28;;;;;;;0.50;0.32;;;;;;;;;;5078064;28;20101;-83
2023/03/09 11:53:01;;;;;;;0.80;0.20;;;;;;;;;;5078322;28;20044;-83
2023/03/09 11:55:32;;;;;;;0.93;0.30;;;;;;;;;;5095955;28;20052;-83
2023/03/09 11:58:02;;;;;;;1.65;0.30;;;;;;;;;;5096103;28;20090;-83
2023/03/09 12:00:29;;;;;;;1.55;0.40;;;;;;;;;;5077988;28;20051;-83
2023/03/09 12:03:00;;;;;;;0.52;0.20;;;;;;;;;;5077865;28;20492;-82
2023/03/09 12:05:31;;;;;;;0.20;0.20;;;;;;;;;;5095717;28;20512;-82
2023/03/09 12:07:59;;;;;;;0.20;0.20;;;;;;;;;;5078012;28;20051;-83
2023/03/09 12:10:38;;;;;;;1.02;0.35;;;;;;;;;;5077898;28;20044;-83
2023/03/09 12:13:11;;;;;;;0.85;0.17;;;;;;;;;;5077786;28;20048;-83
2023/03/09 12:15:53;;;;;;;0.43;0.17;;;;;;;;;;5095872;28;20488;-83
2023/03/09 12:18:31;;;;;;;0.22;0.17;;;;;;;;;;5095291;28;20507;-83
2023/03/09 12:21:03;;;;;;;0.75;0.20;;;;;;;;;;5077583;28;20052;-84
2023/03/09 12:23:36;;;;;;;0.20;0.20;;;;;;;;;;5078074;28;20052;-83
2023/03/09 12:26:12;;;;;;;0.30;0.20;;;;;;;;;;5095464;28;20150;-83
2023/03/09 12:28:40;;;;;;;0.32;0.30;;;;;;;;;;5077791;28;20055;-85
2023/03/09 12:31:27;;;;;;;0.43;0.30;;;;;;;;;;5077628;28;20052;-83
2023/03/09 12:34:00;;;;;;;0.98;0.55;;;;;;;;;;5095163;28;20056;-85
2023/03/09 12:36:27;;;;;;;0.50;0.50;;;;;;;;;;5077431;28;20407;-84
2023/03/09 12:39:13;;;;;;;1.58;0.50;;;;;;;;;;5077062;28;20044;-84
2023/03/09 12:41:59;;;;;;;0.70;0.68;;;;;;;;;;5095118;28;20054;-84
2023/03/09 12:44:45;;;;;;;0.40;0.40;;;;;;;;;;5077239;28;20101;-84
2023/03/09 12:47:21;;;;;;;0.68;0.30;;;;;;;;;;5077331;28;20048;-84
2023/03/09 12:49:49;;;;;;;0.35;0.30;;;;;;;;;;5095225;28;20078;-84
2023/03/09 12:52:30;;;;;;;0.10;0.10;;;;;;;;;;5076933;28;20055;-84
2023/03/09 12:55:03;;;;;;;0.35;0.30;;;;;;;;;;5094914;28;20048;-84
2023/03/09 12:57:31;;;;;;;0.63;0.30;;;;;;;;;;5077360;28;20056;-84
2023/03/09 13:00:11;;;;;;;0.55;0.30;;;;;;;;;;5077626;28;20077;-84
2023/03/09 13:02:39;;;;;;;0.50;0.30;;;;;;;;;;5077111;28;20044;-85
2023/03/09 13:05:32;;;;;;;0.30;0.30;;;;;;;;;;5094672;28;20086;-84
2023/03/09 13:08:07;;;;;;;0.40;0.40;;;;;;;;;;5073828;28;20529;-84
2023/03/09 13:10:35;;;;;;;0.20;0.20;;;;;;;;;;5076901;28;20118;-84
2023/03/09 13:13:21;;;;;;;0.50;0.50;;;;;;;;;;5076939;28;20407;-85
2023/03/09 13:15:48;;;;;;;1.45;0.68;;;;;;;;;;5076618;28;20052;-88
2023/03/09 13:18:23;;;;;;;1.15;0.40;;;;;;;;;;5094919;28;20048;-84
2023/03/09 13:20:51;;;;;;;3.83;0.82;;;;;;;;;;5094605;28;20476;-84
2023/03/09 13:23:20;;;;;;;1.23;0.60;;;;;;;;;;5077745;28;20066;-85
2023/03/09 13:25:51;;;;;;;0.60;0.40;;;;;;;;;;5098217;28;20052;-84
2023/03/09 13:28:22;;;;;;;0.80;0.20;;;;;;;;;;5076793;28;20048;-84
2023/03/09 13:30:51;;;;;;;0.68;0.55;;;;;;;;;;5093570;28;20403;-85
2023/03/09 13:33:21;;;;;;;1.75;0.52;;;;;;;;;;5076372;28;20109;-85
2023/03/09 13:35:59;;;;;;;0.77;0.60;;;;;;;;;;5094000;28;20054;-84
2023/03/09 13:38:28;;;;;;;0.95;0.40;;;;;;;;;;5076466;28;20094;-84
2023/03/09 13:40:57;;;;;;;1.48;0.60;;;;;;;;;;5093967;28;20048;-84
2023/03/09 13:43:27;;;;;;;0.40;0.40;;;;;;;;;;5076182;28;20052;-84
2023/03/09 13:45:56;;;;;;;0.63;0.30;;;;;;;;;;5075922;28;20401;-85
2023/03/09 13:48:23;;;;;;;2.70;0.50;;;;;;;;;;5094201;28;20052;-85
2023/03/09 13:50:51;;;;;;;2.40;0.40;;;;;;;;;;5075994;28;20484;-84
2023/03/09 13:53:18;;;;;;;0.85;0.45;;;;;;;;;;5094029;28;20040;-84
2023/03/09 13:56:03;;;;;;;0.52;0.40;;;;;;;;;;5075026;28;20055;-83
2023/03/09 13:58:33;;;;;;;0.32;0.28;;;;;;;;;;5093299;28;20040;-85
2023/03/09 14:01:01;;;;;;;1.08;0.80;;;;;;;;;;5075458;28;20055;-84
2023/03/09 14:03:30;;;;;;;1.55;0.47;;;;;;;;;;5093737;28;20068;-84
2023/03/09 14:06:07;;;;;;;1.60;0.90;;;;;;;;;;5075455;28;20408;-85
2023/03/09 14:08:55;;;;;;;1.38;0.70;;;;;;;;;;5093294;28;20048;-83
2023/03/09 14:11:25;;;;;;;1.27;0.60;;;;;;;;;;5075641;28;20419;-84
2023/03/09 14:13:55;;;;;;;1.58;0.55;;;;;;;;;;5075390;28;20083;-85
2023/03/09 14:16:22;;;;;;;1.00;0.47;;;;;;;;;;5093543;28;20052;-83
2023/03/09 14:18:51;;;;;;;2.42;0.80;;;;;;;;;;5093566;28;20421;-84
2023/03/09 14:21:26;;;;;;;1.52;0.70;;;;;;;;;;5093267;28;20070;-84
2023/03/09 14:23:54;;;;;;;1.48;0.95;;;;;;;;;;5075604;28;20105;-85
2023/03/09 14:26:26;;;;;;;3.88;1.15;;;;;;;;;;5075173;28;20055;-83
2023/03/09 14:29:12;;;;;;;6.07;1.35;;;;;;;;;;5093268;28;20498;-84
2023/03/09 14:31:39;;;;;;;3.67;0.77;;;;;;;;;;5075230;28;20048;-84
2023/03/09 14:34:23;;;;;;;3.78;1.02;;;;;;;;;;5072868;28;20044;-84
2023/03/09 14:36:55;;;;;;;;;;;;;;;;;;5093710;28;20047;-84
2023/03/09 14:39:43;;;;;;;5.88;0.90;;;;;;;;;;5075108;28;20396;-84
2023/03/09 14:42:29;;;;;;;4.10;1.10;;;;;;;;;;5092996;28;20402;-84
2023/03/09 14:45:12;;;;;;;1.10;0.80;;;;;;;;;;5075596;28;20052;-85
2023/03/09 14:47:43;;;;;;;3.87;0.93;;;;;;;;;;5093209;28;20048;-85
2023/03/09 14:50:14;;;;;;;3.10;1.30;;;;;;;;;;5075537;28;20560;-85